createdAt,value
2023-02-21T00:01:24.089Z,100199.83
2023-02-21T00:03:50.584Z,100198.56
2023-02-21T00:06:17.180Z,100198.16
2023-02-21T00:08:44.113Z,100193.41
2023-02-21T00:11:10.574Z,100196.83
2023-02-21T00:13:38.011Z,100195.35
2023-02-21T00:16:04.952Z,100193.16
2023-02-21T00:18:38.152Z,100189.08
2023-02-21T00:21:05.766Z,100183.09
2023-02-21T00:23:36.546Z,100178.70
2023-02-21T00:26:03.030Z,100183.84
2023-02-21T00:28:32.536Z,100185.33
2023-02-21T00:30:59.049Z,100184.95
2023-02-21T00:33:25.744Z,100187.22
2023-02-21T00:35:52.224Z,100188.60
2023-02-21T00:38:18.792Z,100191.14
2023-02-21T00:40:45.380Z,100192.66
2023-02-21T00:43:11.865Z,100190.71
2023-02-21T00:45:38.396Z,100190.20
2023-02-21T00:48:04.935Z,100189.67
2023-02-21T00:50:31.398Z,100194.85
2023-02-21T00:52:57.983Z,100191.70
2023-02-21T00:55:24.515Z,100188.23
2023-02-21T00:57:51.001Z,100185.62
2023-02-21T01:00:20.653Z,100184.24
2023-02-21T01:02:47.124Z,100176.60
2023-02-21T01:05:13.652Z,100170.52
2023-02-21T01:07:40.178Z,100170.17
2023-02-21T01:10:06.809Z,100167.92
2023-02-21T01:12:33.564Z,100170.54
2023-02-21T01:15:00.079Z,100169.15
2023-02-21T01:17:26.552Z,100168.99
2023-02-21T01:19:53.232Z,100167.77
2023-02-21T01:22:20.061Z,100166.55
2023-02-21T01:24:49.304Z,100172.11
2023-02-21T01:27:15.814Z,100173.68
2023-02-21T01:29:42.309Z,100168.81
2023-02-21T01:32:08.796Z,100170.90
2023-02-21T01:34:36.192Z,100168.15
2023-02-21T01:37:02.796Z,100173.23
2023-02-21T01:39:29.267Z,100169.06
2023-02-21T01:41:55.906Z,100169.25
2023-02-21T01:44:43.772Z,100171.89
2023-02-21T01:47:12.285Z,100171.05
2023-02-21T01:49:41.084Z,100161.14
2023-02-21T01:52:07.882Z,100150.88
2023-02-21T01:54:40.694Z,100143.06
2023-02-21T01:57:08.300Z,100143.58
2023-02-21T01:59:34.814Z,100136.30
2023-02-21T02:02:29.345Z,100143.27
2023-02-21T02:04:56.398Z,100144.12
2023-02-21T02:07:22.911Z,100143.78
2023-02-21T02:09:49.543Z,100141.17
2023-02-21T02:12:24.863Z,100142.38
2023-02-21T02:15:15.617Z,100136.09
2023-02-21T02:18:03.453Z,100133.62
2023-02-21T02:20:51.714Z,100142.98
2023-02-21T02:23:33.327Z,100136.81
2023-02-21T02:26:38.175Z,100137.28
2023-02-21T02:29:42.314Z,100132.77
2023-02-21T02:32:29.283Z,100122.61
2023-02-21T02:34:59.483Z,100114.87
2023-02-21T02:37:44.269Z,100110.05
2023-02-21T02:40:13.680Z,100114.30
2023-02-21T02:42:54.281Z,100107.33
2023-02-21T02:45:29.075Z,100107.66
2023-02-21T02:48:03.321Z,100101.13
2023-02-21T02:50:31.134Z,100095.20
2023-02-21T02:53:02.553Z,100096.73
2023-02-21T02:55:37.891Z,100090.54
2023-02-21T02:58:05.719Z,100092.34
2023-02-21T03:00:35.318Z,100087.49
2023-02-21T03:03:19.901Z,100089.22
2023-02-21T03:06:30.269Z,100085.30
2023-02-21T03:09:12.736Z,100089.23
2023-02-21T03:11:51.090Z,100087.88
2023-02-21T03:14:21.551Z,100091.58
2023-02-21T03:16:53.391Z,100095.10
2023-02-21T03:19:31.596Z,100094.41
2023-02-21T03:22:02.641Z,100087.45
2023-02-21T03:24:29.745Z,100087.83
2023-02-21T03:27:02.564Z,100091.33
2023-02-21T03:29:29.364Z,100093.80
2023-02-21T03:32:01.338Z,100095.27
2023-02-21T03:34:27.993Z,100095.96
2023-02-21T03:36:54.520Z,100096.52
2023-02-21T03:39:20.967Z,100101.57
2023-02-21T03:41:47.422Z,100100.70
2023-02-21T03:44:13.937Z,100104.04
2023-02-21T03:46:41.046Z,100098.97
2023-02-21T03:49:07.679Z,100099.86
2023-02-21T03:51:34.241Z,100097.09
2023-02-21T03:54:00.776Z,100102.33
2023-02-21T03:56:36.769Z,100110.02
2023-02-21T03:59:07.902Z,100110.36
2023-02-21T04:01:34.356Z,100106.70
2023-02-21T04:04:00.885Z,100101.63
2023-02-21T04:06:27.431Z,100100.55
2023-02-21T04:08:53.890Z,100101.42
2023-02-21T04:11:22.032Z,100094.60
2023-02-21T04:13:48.554Z,100097.23
2023-02-21T04:16:15.089Z,100096.88
2023-02-21T04:18:41.635Z,100098.09
2023-02-21T04:21:08.176Z,100098.60
2023-02-21T04:23:34.663Z,100101.05
2023-02-21T04:26:01.172Z,100103.99
2023-02-21T04:28:27.658Z,100099.79
2023-02-21T04:30:54.167Z,100099.77
2023-02-21T04:33:20.659Z,100093.98
2023-02-21T04:35:47.171Z,100095.20
2023-02-21T04:38:13.642Z,100094.34
2023-02-21T04:40:40.100Z,100094.70
2023-02-21T04:43:06.783Z,100095.27
2023-02-21T04:45:33.307Z,100096.30
2023-02-21T04:47:59.967Z,100096.30
2023-02-21T04:50:26.419Z,100094.90
2023-02-21T04:52:52.942Z,100098.39
2023-02-21T04:55:19.452Z,100095.26
2023-02-21T04:57:45.973Z,100095.95
2023-02-21T05:00:13.357Z,100095.08
2023-02-21T05:02:43.520Z,100099.28
2023-02-21T05:05:10.569Z,100101.89
2023-02-21T05:07:37.247Z,100100.16
2023-02-21T05:10:04.788Z,100104.02
2023-02-21T05:12:32.448Z,100106.83
2023-02-21T05:14:58.946Z,100109.61
2023-02-21T05:17:25.413Z,100108.73
2023-02-21T05:19:52.016Z,100110.31
2023-02-21T05:22:18.490Z,100106.83
2023-02-21T05:24:44.977Z,100109.79
2023-02-21T05:27:11.470Z,100103.33
2023-02-21T05:29:38.135Z,100105.59
2023-02-21T05:32:04.752Z,100098.27
2023-02-21T05:34:31.224Z,100099.49
2023-02-21T05:36:57.775Z,100092.16
2023-02-21T05:39:24.608Z,100092.86
2023-02-21T05:41:51.678Z,100090.60
2023-02-21T05:44:18.657Z,100089.73
2023-02-21T05:46:45.240Z,100083.96
2023-02-21T05:49:12.210Z,100081.17
2023-02-21T05:51:42.535Z,100083.96
2023-02-21T05:54:14.136Z,100084.65
2023-02-21T05:56:41.436Z,100083.61
2023-02-21T05:59:08.861Z,100087.46
2023-02-21T06:01:35.797Z,100090.95
2023-02-21T06:04:02.339Z,100092.88
2023-02-21T06:06:28.827Z,100091.67
2023-02-21T06:08:55.772Z,100094.14
2023-02-21T06:11:25.075Z,100096.06
2023-02-21T06:13:52.867Z,100096.61
2023-02-21T06:16:19.450Z,100100.10
2023-02-21T06:18:45.978Z,100098.90
2023-02-21T06:21:12.706Z,100105.89
2023-02-21T06:23:39.344Z,100097.34
2023-02-21T06:26:05.877Z,100099.27
2023-02-21T06:28:32.443Z,100099.25
2023-02-21T06:30:58.967Z,100099.43
2023-02-21T06:33:25.827Z,100104.33
2023-02-21T06:35:52.399Z,100104.86
2023-02-21T06:38:18.841Z,100108.52
2023-02-21T06:40:45.380Z,100110.08
2023-02-21T06:43:11.842Z,100122.30
2023-02-21T06:45:38.358Z,100126.69
2023-02-21T06:48:05.005Z,100123.52
2023-02-21T06:50:31.491Z,100122.46
2023-02-21T06:52:58.082Z,100123.68
2023-02-21T06:55:25.725Z,100123.83
2023-02-21T06:57:52.641Z,100125.04
2023-02-21T07:00:19.284Z,100119.95
2023-02-21T07:02:45.788Z,100122.02
2023-02-21T07:05:12.284Z,100118.88
2023-02-21T07:07:38.894Z,100122.35
2023-02-21T07:10:05.863Z,100121.45
2023-02-21T07:12:32.348Z,100122.12
2023-02-21T07:14:58.833Z,100118.59
2023-02-21T07:17:25.312Z,100116.45
2023-02-21T07:19:51.841Z,100124.50
2023-02-21T07:22:18.322Z,100127.43
2023-02-21T07:24:44.849Z,100130.20
2023-02-21T07:27:11.310Z,100135.08
2023-02-21T07:29:37.813Z,100136.09
2023-02-21T07:32:04.563Z,100139.91
2023-02-21T07:34:31.008Z,100142.85
2023-02-21T07:36:57.508Z,100140.72
2023-02-21T07:39:23.974Z,100142.80
2023-02-21T07:41:50.501Z,100144.15
2023-02-21T07:44:16.990Z,100139.17
2023-02-21T07:46:43.562Z,100139.14
2023-02-21T07:49:10.141Z,100143.82
2023-02-21T07:51:36.690Z,100138.15
2023-02-21T07:54:03.246Z,100137.04
2023-02-21T07:56:29.746Z,100136.45
2023-02-21T07:58:56.245Z,100130.42
2023-02-21T08:01:25.332Z,100135.11
2023-02-21T08:03:51.896Z,100130.84
2023-02-21T08:06:18.511Z,100127.63
2023-02-21T08:08:45.608Z,100127.03
2023-02-21T08:11:12.179Z,100128.51
2023-02-21T08:13:38.715Z,100127.00
2023-02-21T08:16:05.500Z,100130.45
2023-02-21T08:18:32.017Z,100128.44
2023-02-21T08:20:58.507Z,100125.20
2023-02-21T08:23:25.481Z,100120.04
2023-02-21T08:25:51.955Z,100119.27
2023-02-21T08:28:18.520Z,100115.34
2023-02-21T08:30:45.126Z,100119.14
2023-02-21T08:33:11.635Z,100122.39
2023-02-21T08:35:38.169Z,100120.71
2023-02-21T08:38:04.688Z,100118.56
2023-02-21T08:40:31.805Z,100117.34
2023-02-21T08:43:00.340Z,100116.97
2023-02-21T08:45:28.577Z,100121.62
2023-02-21T08:47:55.760Z,100125.50
2023-02-21T08:50:24.384Z,100119.39
2023-02-21T08:52:51.494Z,100119.70
2023-02-21T08:55:19.824Z,100115.38
2023-02-21T08:57:50.965Z,100118.00
2023-02-21T09:00:19.800Z,100114.82
2023-02-21T09:02:46.325Z,100103.77
2023-02-21T09:05:17.366Z,100102.36
2023-02-21T09:07:43.837Z,100098.02
2023-02-21T09:10:11.723Z,100096.00
2023-02-21T09:12:38.483Z,100100.40
2023-02-21T09:15:07.056Z,100106.64
2023-02-21T09:17:33.653Z,100109.67
2023-02-21T09:20:05.554Z,100104.80
2023-02-21T09:22:32.480Z,100104.03
2023-02-21T09:24:59.909Z,100102.48
2023-02-21T09:27:26.737Z,100103.31
2023-02-21T09:29:53.171Z,100093.85
2023-02-21T09:32:19.686Z,100098.29
2023-02-21T09:34:46.184Z,100099.16
2023-02-21T09:37:12.699Z,100095.63
2023-02-21T09:39:39.240Z,100103.25
2023-02-21T09:42:05.929Z,100101.46
2023-02-21T09:44:32.578Z,100104.79
2023-02-21T09:47:04.119Z,100100.88
2023-02-21T09:49:38.381Z,100099.73
2023-02-21T09:52:07.205Z,100102.51
2023-02-21T09:54:46.472Z,100101.66
2023-02-21T09:57:15.611Z,100104.96
2023-02-21T09:59:42.120Z,100103.47
2023-02-21T10:02:11.358Z,100108.51
2023-02-21T10:05:01.235Z,100102.20
2023-02-21T10:08:05.167Z,100107.50
2023-02-21T10:10:40.215Z,100105.53
2023-02-21T10:13:20.004Z,100114.41
2023-02-21T10:15:49.502Z,100115.27
2023-02-21T10:19:01.296Z,100114.53
2023-02-21T10:21:33.475Z,100113.41
2023-02-21T10:24:10.613Z,100109.50
2023-02-21T10:26:39.074Z,100110.88
2023-02-21T10:29:17.867Z,100104.87
2023-02-21T10:31:45.227Z,100107.02
2023-02-21T10:34:32.281Z,100099.36
2023-02-21T10:37:20.494Z,100098.80
2023-02-21T10:39:53.225Z,100094.64
2023-02-21T10:42:39.271Z,100086.55
2023-02-21T10:45:07.623Z,100086.30
2023-02-21T10:47:53.587Z,100087.10
2023-02-21T10:50:44.727Z,100092.69
2023-02-21T10:53:29.985Z,100095.12
2023-02-21T10:56:15.225Z,100093.60
2023-02-21T10:58:47.491Z,100084.09
2023-02-21T11:01:17.753Z,100074.32
2023-02-21T11:03:56.905Z,100077.58
2023-02-21T11:06:38.973Z,100080.39
2023-02-21T11:09:27.487Z,100077.40
2023-02-21T11:12:27.527Z,100081.21
2023-02-21T11:14:53.951Z,100087.46
2023-02-21T11:17:24.066Z,100088.67
2023-02-21T11:19:53.323Z,100080.44
2023-02-21T11:22:23.909Z,100078.95
2023-02-21T11:24:55.592Z,100082.77
2023-02-21T11:27:22.364Z,100079.81
2023-02-21T11:29:51.392Z,100077.17
2023-02-21T11:32:31.346Z,100079.65
2023-02-21T11:35:20.917Z,100072.71
2023-02-21T11:37:59.879Z,100073.34
2023-02-21T11:40:35.026Z,100073.37
2023-02-21T11:43:30.772Z,100070.60
2023-02-21T11:46:18.380Z,100072.22
2023-02-21T11:49:06.422Z,100071.77
2023-02-21T11:51:41.520Z,100075.52
2023-02-21T11:54:08.305Z,100080.51
2023-02-21T11:56:43.884Z,100082.42
2023-02-21T11:59:29.774Z,100081.98
2023-02-21T12:02:33.294Z,100073.60
2023-02-21T12:05:11.932Z,100082.34
2023-02-21T12:07:41.032Z,100084.70
2023-02-21T12:10:22.634Z,100085.66
2023-02-21T12:12:55.102Z,100087.65
2023-02-21T12:15:29.484Z,100086.77
2023-02-21T12:18:30.106Z,100087.59
2023-02-21T12:21:26.692Z,100090.45
2023-02-21T12:24:14.527Z,100086.49
2023-02-21T12:27:10.068Z,100089.67
2023-02-21T12:29:52.286Z,100093.91
2023-02-21T12:33:03.555Z,100090.73
2023-02-21T12:35:51.546Z,100088.91
2023-02-21T12:38:55.790Z,100089.13
2023-02-21T12:41:37.637Z,100093.70
2023-02-21T12:44:13.043Z,100095.06
2023-02-21T12:46:59.128Z,100098.86
2023-02-21T12:49:36.370Z,100091.44
2023-02-21T12:52:34.847Z,100084.56
2023-02-21T12:55:07.368Z,100086.27
2023-02-21T12:57:54.021Z,100085.51
2023-02-21T13:00:25.141Z,100084.30
2023-02-21T13:02:57.815Z,100083.95
2023-02-21T13:05:36.419Z,100083.47
2023-02-21T13:08:11.808Z,100084.92
2023-02-21T13:10:59.746Z,100082.39
2023-02-21T13:13:31.055Z,100077.80
2023-02-21T13:16:04.170Z,100075.29
2023-02-21T13:18:36.914Z,100072.50
2023-02-21T13:21:31.906Z,100067.36
2023-02-21T13:24:28.665Z,100066.42
2023-02-21T13:27:10.328Z,100068.52
2023-02-21T13:29:41.659Z,100067.42
2023-02-21T13:32:12.460Z,100069.44
2023-02-21T13:34:45.930Z,100066.12
2023-02-21T13:37:24.801Z,100070.16
2023-02-21T13:39:55.472Z,100067.16
2023-02-21T13:42:25.372Z,100070.62
2023-02-21T13:45:06.621Z,100079.68
2023-02-21T13:47:58.063Z,100070.66
2023-02-21T13:50:39.828Z,100072.58
2023-02-21T13:53:09.467Z,100068.27
2023-02-21T13:55:37.512Z,100056.68
2023-02-21T13:58:03.956Z,100056.84
2023-02-21T14:00:30.406Z,100056.86
2023-02-21T14:03:00.541Z,100060.33
2023-02-21T14:05:46.948Z,100066.60
2023-02-21T14:08:31.532Z,100057.11
2023-02-21T14:10:59.673Z,100067.02
2023-02-21T14:13:35.172Z,100066.77
2023-02-21T14:16:07.649Z,100071.20
2023-02-21T14:18:49.245Z,100068.99
2023-02-21T14:21:21.786Z,100068.73
2023-02-21T14:24:01.494Z,100069.89
2023-02-21T14:26:52.343Z,100070.98
2023-02-21T14:29:33.645Z,100067.09
2023-02-21T14:32:00.293Z,100067.76
2023-02-21T14:34:39.318Z,100067.73
2023-02-21T14:37:44.724Z,100064.27
2023-02-21T14:40:23.642Z,100071.25
2023-02-21T14:42:56.266Z,100072.30
2023-02-21T14:45:50.565Z,100071.89
2023-02-21T14:48:38.741Z,100078.37
2023-02-21T14:51:42.832Z,100082.06
2023-02-21T14:54:52.287Z,100083.41
2023-02-21T14:57:48.784Z,100096.68
2023-02-21T15:00:30.933Z,100089.90
2023-02-21T15:03:19.215Z,100093.88
2023-02-21T15:05:56.722Z,100096.95
2023-02-21T15:08:25.774Z,100090.15
2023-02-21T15:10:56.905Z,100085.42
2023-02-21T15:13:29.544Z,100091.79
2023-02-21T15:16:09.088Z,100092.85
2023-02-21T15:18:38.024Z,100090.02
2023-02-21T15:21:10.299Z,100089.08
2023-02-21T15:23:43.170Z,100091.09
2023-02-21T15:26:27.901Z,100085.50
2023-02-21T15:29:18.025Z,100086.46
2023-02-21T15:31:48.394Z,100084.04
2023-02-21T15:34:18.215Z,100079.85
2023-02-21T15:36:47.492Z,100084.02
2023-02-21T15:39:39.985Z,100078.83
2023-02-21T15:42:09.967Z,100079.63
2023-02-21T15:44:45.918Z,100079.70
2023-02-21T15:47:25.707Z,100078.86
2023-02-21T15:50:10.831Z,100079.66
2023-02-21T15:52:40.230Z,100082.73
2023-02-21T15:55:18.975Z,100082.64
2023-02-21T15:58:02.886Z,100086.58
2023-02-21T16:01:12.985Z,100088.94
2023-02-21T16:03:44.379Z,100091.30
2023-02-21T16:06:31.415Z,100095.40
2023-02-21T16:09:15.013Z,100099.88
2023-02-21T16:11:55.440Z,100100.29
2023-02-21T16:14:30.050Z,100105.96
2023-02-21T16:17:27.136Z,100112.84
2023-02-21T16:19:56.556Z,100113.44
2023-02-21T16:22:53.893Z,100118.39
2023-02-21T16:25:24.706Z,100125.12
2023-02-21T16:27:53.739Z,100130.27
2023-02-21T16:30:29.634Z,100135.93
2023-02-21T16:33:04.621Z,100134.73
2023-02-21T16:35:33.042Z,100136.02
2023-02-21T16:38:00.967Z,100140.09
2023-02-21T16:40:30.722Z,100146.59
2023-02-21T16:42:58.063Z,100148.53
2023-02-21T16:45:25.235Z,100146.95
2023-02-21T16:48:00.223Z,100150.45
2023-02-21T16:50:33.242Z,100155.02
2023-02-21T16:53:00.704Z,100156.98
2023-02-21T16:55:28.172Z,100158.77
2023-02-21T16:57:59.207Z,100163.52
2023-02-21T17:00:25.776Z,100162.83
2023-02-21T17:02:53.263Z,100167.23
2023-02-21T17:05:21.700Z,100164.94
2023-02-21T17:07:49.691Z,100162.84
2023-02-21T17:10:16.215Z,100168.46
2023-02-21T17:12:42.850Z,100170.04
2023-02-21T17:15:09.495Z,100164.61
2023-02-21T17:17:36.014Z,100168.12
2023-02-21T17:20:02.828Z,100171.45
2023-02-21T17:22:29.320Z,100168.14
2023-02-21T17:24:55.841Z,100166.04
2023-02-21T17:27:22.387Z,100166.70
2023-02-21T17:29:49.349Z,100170.37
2023-02-21T17:32:16.507Z,100164.02
2023-02-21T17:34:43.646Z,100167.87
2023-02-21T17:37:10.214Z,100167.51
2023-02-21T17:39:37.048Z,100165.91
2023-02-21T17:42:03.924Z,100168.17
2023-02-21T17:44:30.554Z,100168.52
2023-02-21T17:46:57.737Z,100174.12
2023-02-21T17:49:27.734Z,100173.61
2023-02-21T17:51:54.846Z,100174.83
2023-02-21T17:54:23.848Z,100173.77
2023-02-21T17:56:51.151Z,100173.23
2023-02-21T17:59:18.554Z,100175.86
2023-02-21T18:01:45.857Z,100170.77
2023-02-21T18:04:13.123Z,100172.34
2023-02-21T18:06:40.127Z,100169.52
2023-02-21T18:09:06.661Z,100167.22
2023-02-21T18:11:34.209Z,100164.41
2023-02-21T18:14:00.720Z,100167.40
2023-02-21T18:16:27.364Z,100164.59
2023-02-21T18:18:53.995Z,100170.02
2023-02-21T18:21:20.553Z,100165.80
2023-02-21T18:23:47.088Z,100161.56
2023-02-21T18:26:13.766Z,100156.98
2023-02-21T18:28:40.418Z,100158.23
2023-02-21T18:31:08.874Z,100157.20
2023-02-21T18:33:36.647Z,100157.24
2023-02-21T18:36:03.360Z,100156.08
2023-02-21T18:38:30.123Z,100162.09
2023-02-21T18:40:56.573Z,100162.50
2023-02-21T18:43:25.415Z,100167.47
2023-02-21T18:45:53.563Z,100169.46
2023-02-21T18:48:21.742Z,100171.98
2023-02-21T18:50:48.313Z,100165.71
2023-02-21T18:53:15.625Z,100171.89
2023-02-21T18:55:42.434Z,100171.24
2023-02-21T18:58:09.577Z,100173.58
2023-02-21T19:00:38.397Z,100170.83
2023-02-21T19:03:07.135Z,100167.89
2023-02-21T19:05:35.009Z,100166.02
2023-02-21T19:08:01.746Z,100168.34
2023-02-21T19:10:29.740Z,100172.92
2023-02-21T19:12:56.462Z,100173.13
2023-02-21T19:15:22.975Z,100174.71
2023-02-21T19:17:49.446Z,100177.50
2023-02-21T19:20:16.785Z,100178.02
2023-02-21T19:22:43.270Z,100182.76
2023-02-21T19:25:09.872Z,100183.63
2023-02-21T19:27:36.618Z,100183.63
2023-02-21T19:30:04.071Z,100187.33
2023-02-21T19:32:30.795Z,100185.25
2023-02-21T19:34:57.385Z,100185.08
2023-02-21T19:37:23.887Z,100187.88
2023-02-21T19:39:50.663Z,100186.48
2023-02-21T19:42:17.201Z,100185.95
2023-02-21T19:44:43.842Z,100189.45
2023-02-21T19:47:10.435Z,100191.92
2023-02-21T19:49:37.009Z,100194.38
2023-02-21T19:52:04.032Z,100197.73
2023-02-21T19:54:30.568Z,100197.91
2023-02-21T19:57:00.254Z,100195.95
2023-02-21T19:59:26.870Z,100195.29
2023-02-21T20:01:53.381Z,100197.23
2023-02-21T20:04:20.307Z,100197.27
2023-02-21T20:06:46.932Z,100199.40
2023-02-21T20:09:15.956Z,100202.05
2023-02-21T20:11:42.502Z,100197.49
2023-02-21T20:14:11.225Z,100199.25
2023-02-21T20:16:40.301Z,100198.38
2023-02-21T20:19:07.913Z,100203.13
2023-02-21T20:21:35.213Z,100199.98
2023-02-21T20:24:02.088Z,100204.02
2023-02-21T20:26:29.619Z,100202.30
2023-02-21T20:28:56.540Z,100202.30
2023-02-21T20:31:27.309Z,100201.97
2023-02-21T20:33:54.242Z,100200.40
2023-02-21T20:36:32.048Z,100203.05
2023-02-21T20:38:58.663Z,100200.61
2023-02-21T20:41:29.557Z,100200.98
2023-02-21T20:43:56.154Z,100204.31
2023-02-21T20:46:23.418Z,100204.16
2023-02-21T20:48:50.575Z,100206.11
2023-02-21T20:51:18.466Z,100209.46
2023-02-21T20:53:45.142Z,100210.20
2023-02-21T20:56:12.987Z,100213.39
2023-02-21T20:58:40.356Z,100209.73
2023-02-21T21:01:06.895Z,100209.95
2023-02-21T21:03:33.401Z,100209.92
2023-02-21T21:05:59.892Z,100209.06
2023-02-21T21:08:26.408Z,100209.77
2023-02-21T21:10:52.909Z,100210.14
2023-02-21T21:13:19.487Z,100212.06
2023-02-21T21:15:46.109Z,100213.11
2023-02-21T21:18:12.617Z,100217.33
2023-02-21T21:20:39.100Z,100220.30
2023-02-21T21:23:06.542Z,100222.23
2023-02-21T21:25:34.148Z,100223.27
2023-02-21T21:28:01.977Z,100220.83
2023-02-21T21:30:28.791Z,100222.91
2023-02-21T21:32:55.274Z,100224.15
2023-02-21T21:35:21.776Z,100221.52
2023-02-21T21:37:49.270Z,100220.29
2023-02-21T21:40:16.961Z,100218.71
2023-02-21T21:42:53.842Z,100221.86
2023-02-21T21:45:29.090Z,100220.65
2023-02-21T21:47:57.159Z,100219.59
2023-02-21T21:50:24.217Z,100221.69
2023-02-21T21:52:56.500Z,100219.25
2023-02-21T21:55:25.996Z,100215.39
2023-02-21T21:57:53.507Z,100214.52
2023-02-21T22:00:23.360Z,100215.75
2023-02-21T22:02:56.361Z,100215.56
2023-02-21T22:05:28.833Z,100216.96
2023-02-21T22:07:56.827Z,100214.35
2023-02-21T22:10:25.004Z,100219.78
2023-02-21T22:12:54.129Z,100223.09
2023-02-21T22:15:23.489Z,100224.33
2023-02-21T22:17:50.926Z,100223.27
2023-02-21T22:20:19.528Z,100218.20
2023-02-21T22:22:56.378Z,100223.44
2023-02-21T22:25:22.897Z,100222.23
2023-02-21T22:27:49.458Z,100219.41
2023-02-21T22:30:21.424Z,100223.97
2023-02-21T22:32:48.760Z,100226.41
2023-02-21T22:35:18.519Z,100225.02
2023-02-21T22:37:46.122Z,100225.17
2023-02-21T22:40:13.149Z,100223.09
2023-02-21T22:42:39.641Z,100229.38
2023-02-21T22:45:06.453Z,100231.13
2023-02-21T22:47:32.935Z,100232.70
2023-02-21T22:49:59.434Z,100236.02
2023-02-21T22:52:25.961Z,100235.66
2023-02-21T22:54:52.589Z,100240.91
2023-02-21T22:57:19.071Z,100237.40
2023-02-21T22:59:45.565Z,100234.23
2023-02-21T23:02:12.115Z,100231.63
2023-02-21T23:04:38.659Z,100231.44
2023-02-21T23:07:05.199Z,100237.20
2023-02-21T23:09:31.673Z,100234.75
2023-02-21T23:12:00.129Z,100232.80
2023-02-21T23:14:28.542Z,100230.38
2023-02-21T23:16:56.823Z,100235.26
2023-02-21T23:19:28.103Z,100234.03
2023-02-21T23:21:55.921Z,100235.06
2023-02-21T23:24:22.686Z,100237.67
2023-02-21T23:26:50.372Z,100240.46
2023-02-21T23:29:19.769Z,100243.08
2023-02-21T23:31:47.093Z,100238.87
2023-02-21T23:34:13.780Z,100237.98
2023-02-21T23:36:40.350Z,100233.77
2023-02-21T23:39:07.840Z,100230.45
2023-02-21T23:41:41.752Z,100228.88
2023-02-21T23:44:12.619Z,100229.90
2023-02-21T23:46:42.159Z,100230.94
2023-02-21T23:49:11.812Z,100231.27
2023-02-21T23:51:38.883Z,100232.46
2023-02-21T23:54:05.602Z,100233.33
2023-02-21T23:56:32.176Z,100233.48
2023-02-21T23:58:58.656Z,100234.67
